createdAt,value
2023-03-02T00:02:37.472Z,29.92
2023-03-02T00:05:24.360Z,25.90
2023-03-02T00:07:57.503Z,26.48
2023-03-02T00:10:45.393Z,30.10
2023-03-02T00:13:26.386Z,27.15
2023-03-02T00:16:20.486Z,27.83
2023-03-02T00:19:07.389Z,29.13
2023-03-02T00:21:41.303Z,26.77
2023-03-02T00:24:28.391Z,28.17
2023-03-02T00:27:01.478Z,27.33
2023-03-02T00:29:48.409Z,26.40
2023-03-02T00:32:28.481Z,26.10
2023-03-02T00:35:22.436Z,24.33
2023-03-02T00:38:16.357Z,23.85
2023-03-02T00:41:10.401Z,24.52
2023-03-02T00:43:58.374Z,23.73
2023-03-02T00:46:39.488Z,25.50
2023-03-02T00:49:26.393Z,23.17
2023-03-02T00:51:59.686Z,24.35
2023-03-02T00:54:46.379Z,24.58
2023-03-02T00:57:19.527Z,25.08
2023-03-02T01:00:06.385Z,23.10
2023-03-02T01:02:44.349Z,23.63
2023-03-02T01:05:31.422Z,23.98
2023-03-02T01:08:04.486Z,26.13
2023-03-02T01:10:53.912Z,64.03
2023-03-02T01:13:27.472Z,38.22
2023-03-02T01:16:14.467Z,28.63
2023-03-02T01:18:47.529Z,25.92
2023-03-02T01:21:34.384Z,24.20
2023-03-02T01:24:07.501Z,24.58
2023-03-02T01:26:54.394Z,25.30
2023-03-02T01:29:35.415Z,24.58
2023-03-02T01:32:29.455Z,25.15
2023-03-02T01:35:16.394Z,24.38
2023-03-02T01:37:49.611Z,24.00
2023-03-02T01:40:36.846Z,24.55
2023-03-02T01:43:19.514Z,23.25
2023-03-02T01:46:10.437Z,25.20
2023-03-02T01:49:18.391Z,23.45
2023-03-02T01:52:05.407Z,20.67
2023-03-02T01:54:38.521Z,23.05
2023-03-02T01:57:31.743Z,21.23
2023-03-02T02:00:19.535Z,22.42
2023-03-02T02:03:18.432Z,21.27
2023-03-02T02:06:12.452Z,21.10
2023-03-02T02:08:45.616Z,21.75
2023-03-02T02:11:32.434Z,22.98
2023-03-02T02:14:15.405Z,22.13
2023-03-02T02:17:09.425Z,22.27
2023-03-02T02:20:26.649Z,22.60
2023-03-02T02:23:20.523Z,22.23
2023-03-02T02:26:44.415Z,20.98
2023-03-02T02:29:52.407Z,21.60
2023-03-02T02:32:44.561Z,22.17
2023-03-02T02:35:36.499Z,21.80
2023-03-02T02:38:34.507Z,21.65
2023-03-02T02:41:28.455Z,21.95
2023-03-02T02:44:09.428Z,22.85
2023-03-02T02:46:56.413Z,21.60
2023-03-02T02:49:42.538Z,22.15
2023-03-02T02:52:32.411Z,23.50
2023-03-02T02:55:05.616Z,23.33
2023-03-02T02:57:52.412Z,23.58
2023-03-02T03:00:28.509Z,22.98
2023-03-02T03:03:35.447Z,22.90
2023-03-02T03:06:12.584Z,23.08
2023-03-02T03:09:05.430Z,23.23
2023-03-02T03:11:41.561Z,24.58
2023-03-02T03:14:35.422Z,27.00
2023-03-02T03:17:19.439Z,26.40
2023-03-02T03:20:13.428Z,25.05
2023-03-02T03:23:00.436Z,25.00
2023-03-02T03:25:35.068Z,25.60
2023-03-02T03:28:21.518Z,27.80
2023-03-02T03:30:54.635Z,27.90
2023-03-02T03:33:41.420Z,32.22
2023-03-02T03:36:14.567Z,37.90
2023-03-02T03:39:01.496Z,30.40
2023-03-02T03:41:34.592Z,27.90
2023-03-02T03:44:21.415Z,28.23
2023-03-02T03:46:54.535Z,25.40
2023-03-02T03:49:44.454Z,25.15
2023-03-02T03:52:17.522Z,22.92
2023-03-02T03:55:07.440Z,21.83
2023-03-02T03:57:47.440Z,46.90
2023-03-02T04:00:41.431Z,40.50
2023-03-02T04:03:28.438Z,35.78
2023-03-02T04:06:08.429Z,33.17
2023-03-02T04:09:02.480Z,28.20
2023-03-02T04:11:51.439Z,26.73
2023-03-02T04:14:26.626Z,26.80
2023-03-02T04:17:13.429Z,45.05
2023-03-02T04:19:46.563Z,44.50
2023-03-02T04:22:33.436Z,39.92
2023-03-02T04:25:06.566Z,37.15
2023-03-02T04:27:55.436Z,36.90
2023-03-02T04:30:33.259Z,36.85
2023-03-02T04:33:20.468Z,37.13
2023-03-02T04:36:01.590Z,35.45
2023-03-02T04:38:55.504Z,37.90
2023-03-02T04:41:49.447Z,34.38
2023-03-02T04:44:36.439Z,26.23
2023-03-02T04:47:09.609Z,25.45
2023-03-02T04:50:01.454Z,25.08
2023-03-02T04:52:41.657Z,26.52
2023-03-02T04:55:37.510Z,27.27
2023-03-02T04:58:24.432Z,24.83
2023-03-02T05:01:02.177Z,25.38
2023-03-02T05:03:48.465Z,24.17
2023-03-02T05:06:21.942Z,25.50
2023-03-02T05:09:08.502Z,25.38
2023-03-02T05:11:48.472Z,24.27
2023-03-02T05:14:45.778Z,25.33
2023-03-02T05:17:32.449Z,25.25
2023-03-02T05:20:07.404Z,23.92
2023-03-02T05:22:54.478Z,23.92
2023-03-02T05:25:35.525Z,25.08
2023-03-02T05:28:30.837Z,22.85
2023-03-02T05:31:25.465Z,21.40
2023-03-02T05:34:05.515Z,22.13
2023-03-02T05:36:59.516Z,23.08
2023-03-02T05:39:53.543Z,23.10
2023-03-02T05:42:47.525Z,21.65
2023-03-02T05:45:45.510Z,21.73
2023-03-02T05:48:21.612Z,20.48
2023-03-02T05:51:08.483Z,26.05
2023-03-02T05:53:41.665Z,33.63
2023-03-02T05:56:29.516Z,32.78
2023-03-02T05:59:02.647Z,37.40
2023-03-02T06:01:49.484Z,39.25
2023-03-02T06:04:22.631Z,37.45
2023-03-02T06:07:09.511Z,35.28
2023-03-02T06:09:42.572Z,37.05
2023-03-02T06:12:29.511Z,31.35
2023-03-02T06:15:02.650Z,33.60
2023-03-02T06:17:49.521Z,33.78
2023-03-02T06:20:30.483Z,32.58
2023-03-02T06:23:20.477Z,27.10
2023-03-02T06:25:53.706Z,29.10
2023-03-02T06:28:52.037Z,29.02
2023-03-02T06:31:26.673Z,26.90
2023-03-02T06:34:13.517Z,26.95
2023-03-02T06:36:53.530Z,27.60
2023-03-02T06:39:47.515Z,25.65
2023-03-02T06:42:34.471Z,24.80
2023-03-02T06:45:07.661Z,22.60
2023-03-02T06:47:54.536Z,25.25
2023-03-02T06:50:28.275Z,23.52
2023-03-02T06:53:14.595Z,23.52
2023-03-02T06:55:47.670Z,22.77
2023-03-02T06:58:34.547Z,22.45
2023-03-02T07:01:14.560Z,21.77
2023-03-02T07:04:01.563Z,19.42
2023-03-02T07:06:34.691Z,18.20
2023-03-02T07:09:21.522Z,19.70
2023-03-02T07:11:55.613Z,19.73
2023-03-02T07:14:43.512Z,20.10
2023-03-02T07:17:16.640Z,21.50
2023-03-02T07:20:03.512Z,19.83
2023-03-02T07:22:43.511Z,19.25
2023-03-02T07:25:37.513Z,19.80
2023-03-02T07:28:31.513Z,19.75
2023-03-02T07:31:18.632Z,18.50
2023-03-02T07:33:58.541Z,19.75
2023-03-02T07:36:45.514Z,19.20
2023-03-02T07:39:18.672Z,20.58
2023-03-02T07:42:06.532Z,23.20
2023-03-02T07:44:46.538Z,26.15
2023-03-02T07:47:40.541Z,24.65
2023-03-02T07:50:27.513Z,26.45
2023-03-02T07:53:07.543Z,21.40
2023-03-02T07:56:01.512Z,22.52
2023-03-02T07:58:48.547Z,20.08
2023-03-02T08:01:28.564Z,21.05
2023-03-02T08:04:16.838Z,22.27
2023-03-02T08:06:49.658Z,24.40
2023-03-02T08:09:36.529Z,27.27
2023-03-02T08:12:16.562Z,24.15
2023-03-02T08:15:10.538Z,26.33
2023-03-02T08:17:57.536Z,26.58
2023-03-02T08:20:31.614Z,26.25
2023-03-02T08:23:18.541Z,25.65
2023-03-02T08:25:51.658Z,28.13
2023-03-02T08:28:38.539Z,29.55
2023-03-02T08:31:12.763Z,28.63
2023-03-02T08:33:59.532Z,27.10
2023-03-02T08:36:32.897Z,25.17
2023-03-02T08:39:29.131Z,26.63
2023-03-02T08:42:15.566Z,25.55
2023-03-02T08:44:48.657Z,22.80
2023-03-02T08:47:35.526Z,20.95
2023-03-02T08:50:08.692Z,24.63
2023-03-02T08:52:55.523Z,23.80
2023-03-02T08:55:28.700Z,25.95
2023-03-02T08:58:15.520Z,22.58
2023-03-02T09:00:48.783Z,21.30
2023-03-02T09:03:35.516Z,21.90
2023-03-02T09:06:08.638Z,20.17
2023-03-02T09:08:55.535Z,21.10
2023-03-02T09:11:28.627Z,19.15
2023-03-02T09:14:15.547Z,21.23
2023-03-02T09:16:55.597Z,20.85
2023-03-02T09:19:48.580Z,15.73
2023-03-02T09:22:21.696Z,15.02
2023-03-02T09:25:09.537Z,15.77
2023-03-02T09:27:49.566Z,14.95
2023-03-02T09:30:43.531Z,15.95
2023-03-02T09:33:30.595Z,14.18
2023-03-02T09:36:03.655Z,15.15
2023-03-02T09:38:59.451Z,15.50
2023-03-02T09:42:12.612Z,14.95
2023-03-02T09:45:15.564Z,13.57
2023-03-02T09:48:10.604Z,13.60
2023-03-02T09:51:01.718Z,14.27
2023-03-02T09:54:07.568Z,14.40
2023-03-02T09:56:44.856Z,15.32
2023-03-02T09:59:51.613Z,14.60
2023-03-02T10:02:42.654Z,13.82
2023-03-02T10:05:54.575Z,13.60
2023-03-02T10:08:44.597Z,12.85
2023-03-02T10:11:45.703Z,14.35
2023-03-02T10:14:48.593Z,12.55
2023-03-02T10:18:09.630Z,13.18
2023-03-02T10:21:28.606Z,12.70
2023-03-02T10:24:55.447Z,11.57
2023-03-02T10:27:48.632Z,13.10
2023-03-02T10:30:43.772Z,12.50
2023-03-02T10:33:30.587Z,14.27
2023-03-02T10:36:03.709Z,13.48
2023-03-02T10:38:57.624Z,13.55
2023-03-02T10:41:50.713Z,12.80
2023-03-02T10:44:32.698Z,12.80
2023-03-02T10:47:45.617Z,12.80
2023-03-02T10:50:37.666Z,13.48
2023-03-02T10:53:32.605Z,12.38
2023-03-02T10:56:38.598Z,13.95
2023-03-02T10:59:48.685Z,13.05
2023-03-02T11:02:36.599Z,12.25
2023-03-02T11:05:41.616Z,12.00
2023-03-02T11:08:40.590Z,11.30
2023-03-02T11:11:30.736Z,11.38
2023-03-02T11:14:18.007Z,11.27
2023-03-02T11:17:03.308Z,11.93
2023-03-02T11:19:45.702Z,12.82
2023-03-02T11:22:39.623Z,10.35
2023-03-02T11:25:29.714Z,9.05
2023-03-02T11:28:21.618Z,11.10
2023-03-02T11:31:04.827Z,9.80
2023-03-02T11:34:16.718Z,9.85
2023-03-02T11:37:07.746Z,10.32
2023-03-02T11:39:55.950Z,10.50
2023-03-02T11:42:39.753Z,9.77
2023-03-02T11:45:33.701Z,10.35
2023-03-02T11:48:31.628Z,11.07
2023-03-02T11:51:23.133Z,12.98
2023-03-02T11:54:08.741Z,10.23
2023-03-02T11:56:56.663Z,10.55
2023-03-02T11:59:37.630Z,11.18
2023-03-02T12:02:25.637Z,11.27
2023-03-02T12:05:19.711Z,11.82
2023-03-02T12:08:16.629Z,12.73
2023-03-02T12:11:25.631Z,12.40
2023-03-02T12:14:05.619Z,13.55
2023-03-02T12:17:04.042Z,12.82
2023-03-02T12:19:51.632Z,11.77
2023-03-02T12:22:40.232Z,14.40
2023-03-02T12:25:26.752Z,13.50
2023-03-02T12:28:03.356Z,13.70
2023-03-02T12:30:49.675Z,13.45
2023-03-02T12:33:27.730Z,14.05
2023-03-02T12:36:21.667Z,13.07
2023-03-02T12:39:15.668Z,12.05
2023-03-02T12:42:31.671Z,12.30
2023-03-02T12:45:35.659Z,13.15
2023-03-02T12:48:33.675Z,11.63
2023-03-02T12:51:09.748Z,13.90
2023-03-02T12:54:07.662Z,12.60
2023-03-02T12:56:40.770Z,11.50
2023-03-02T12:59:31.643Z,14.90
2023-03-02T13:02:38.669Z,11.45
2023-03-02T13:05:41.677Z,11.30
2023-03-02T13:08:39.732Z,12.93
2023-03-02T13:11:37.681Z,12.25
2023-03-02T13:14:26.805Z,11.80
2023-03-02T13:17:28.673Z,12.85
2023-03-02T13:20:02.829Z,10.70
2023-03-02T13:22:49.693Z,12.73
2023-03-02T13:25:35.713Z,13.02
2023-03-02T13:28:41.665Z,12.68
2023-03-02T13:31:35.712Z,14.55
2023-03-02T13:34:31.669Z,14.75
2023-03-02T13:37:05.735Z,12.82
2023-03-02T13:40:01.739Z,13.93
2023-03-02T13:42:42.774Z,16.70
2023-03-02T13:45:36.668Z,14.45
2023-03-02T13:48:20.761Z,15.77
2023-03-02T13:51:11.669Z,14.52
2023-03-02T13:53:57.819Z,13.00
2023-03-02T13:56:50.647Z,14.23
2023-03-02T13:59:32.666Z,14.57
2023-03-02T14:02:39.668Z,15.38
2023-03-02T14:05:12.888Z,15.80
2023-03-02T14:08:01.742Z,15.90
2023-03-02T14:10:35.735Z,15.75
2023-03-02T14:13:27.708Z,15.15
2023-03-02T14:16:07.748Z,16.83
2023-03-02T14:18:57.729Z,17.02
2023-03-02T14:21:39.727Z,17.33
2023-03-02T14:24:26.617Z,16.23
2023-03-02T14:27:06.673Z,16.42
2023-03-02T14:29:55.982Z,18.25
2023-03-02T14:32:38.111Z,18.65
2023-03-02T14:35:31.683Z,18.33
2023-03-02T14:38:27.740Z,18.20
2023-03-02T14:41:30.610Z,16.17
2023-03-02T14:44:18.666Z,18.58
2023-03-02T14:46:59.723Z,18.80
2023-03-02T14:49:53.682Z,18.23
2023-03-02T14:52:47.729Z,20.15
2023-03-02T14:55:37.162Z,18.77
2023-03-02T14:58:26.694Z,18.50
2023-03-02T15:00:59.794Z,19.08
2023-03-02T15:03:46.650Z,18.70
2023-03-02T15:06:34.100Z,20.83
2023-03-02T15:09:20.668Z,20.80
2023-03-02T15:11:53.784Z,21.42
2023-03-02T15:14:40.696Z,20.45
2023-03-02T15:17:20.686Z,19.48
2023-03-02T15:20:14.677Z,19.15
2023-03-02T15:23:03.989Z,21.42
2023-03-02T15:25:38.858Z,20.70
2023-03-02T15:28:28.001Z,20.83
2023-03-02T15:31:08.712Z,21.10
2023-03-02T15:33:58.689Z,22.60
2023-03-02T15:36:31.772Z,21.52
2023-03-02T15:39:26.681Z,19.98
2023-03-02T15:42:20.674Z,20.88
2023-03-02T15:45:07.749Z,23.23
2023-03-02T15:47:49.744Z,22.17
2023-03-02T15:50:43.737Z,26.88
2023-03-02T15:53:30.695Z,28.17
2023-03-02T15:56:10.681Z,28.48
2023-03-02T15:58:57.719Z,25.17
2023-03-02T16:01:30.785Z,25.38
2023-03-02T16:04:17.736Z,24.98
2023-03-02T16:06:57.723Z,23.45
2023-03-02T16:09:44.719Z,24.17
2023-03-02T16:12:20.432Z,22.40
2023-03-02T16:15:06.741Z,21.65
2023-03-02T16:17:39.895Z,21.60
2023-03-02T16:20:26.711Z,22.65
2023-03-02T16:23:01.379Z,20.48
2023-03-02T16:25:50.712Z,20.73
2023-03-02T16:28:24.813Z,22.95
2023-03-02T16:31:14.722Z,23.90
2023-03-02T16:33:48.862Z,23.00
2023-03-02T16:36:35.728Z,24.88
2023-03-02T16:39:09.872Z,24.48
2023-03-02T16:41:57.725Z,22.80
2023-03-02T16:44:30.950Z,23.23
2023-03-02T16:47:17.729Z,22.20
2023-03-02T16:49:50.814Z,23.27
2023-03-02T16:52:37.734Z,26.83
2023-03-02T16:55:21.723Z,26.25
2023-03-02T16:58:15.742Z,25.55
2023-03-02T17:01:02.859Z,26.02
2023-03-02T17:03:35.918Z,24.70
2023-03-02T17:06:25.759Z,22.08
2023-03-02T17:08:58.822Z,23.35
2023-03-02T17:11:45.729Z,26.52
2023-03-02T17:14:18.841Z,23.30
2023-03-02T17:17:05.754Z,24.60
2023-03-02T17:19:39.836Z,26.10
2023-03-02T17:22:26.745Z,24.08
2023-03-02T17:25:01.963Z,25.50
2023-03-02T17:27:49.784Z,25.05
2023-03-02T17:30:29.770Z,26.15
2023-03-02T17:33:24.755Z,26.35
2023-03-02T17:36:13.748Z,30.25
2023-03-02T17:38:47.862Z,31.27
2023-03-02T17:41:35.786Z,29.73
2023-03-02T17:44:16.734Z,26.80
2023-03-02T17:47:03.733Z,28.35
2023-03-02T17:49:44.745Z,28.65
2023-03-02T17:52:38.724Z,30.10
2023-03-02T17:55:25.749Z,29.40
2023-03-02T17:57:58.931Z,30.08
2023-03-02T18:00:46.746Z,30.40
2023-03-02T18:03:26.810Z,32.53
2023-03-02T18:06:20.797Z,31.98
2023-03-02T18:09:07.744Z,31.75
2023-03-02T18:11:42.321Z,28.15
2023-03-02T18:14:28.756Z,30.25
2023-03-02T18:17:02.102Z,28.27
2023-03-02T18:19:48.812Z,29.33
2023-03-02T18:22:28.743Z,31.13
2023-03-02T18:25:22.871Z,30.98
2023-03-02T18:28:09.752Z,30.10
2023-03-02T18:30:49.765Z,31.17
2023-03-02T18:33:36.783Z,31.52
2023-03-02T18:36:09.893Z,32.30
2023-03-02T18:39:03.773Z,34.40
2023-03-02T18:41:57.748Z,32.45
2023-03-02T18:44:44.757Z,32.55
2023-03-02T18:47:22.890Z,31.67
2023-03-02T18:50:10.750Z,33.30
2023-03-02T18:52:50.755Z,34.55
2023-03-02T18:55:44.750Z,33.78
2023-03-02T18:58:32.314Z,35.38
2023-03-02T19:01:05.961Z,34.97
2023-03-02T19:03:52.830Z,35.35
2023-03-02T19:06:25.890Z,35.97
2023-03-02T19:09:12.789Z,34.67
2023-03-02T19:11:45.875Z,32.10
2023-03-02T19:14:32.831Z,33.85
2023-03-02T19:17:12.764Z,29.38
2023-03-02T19:19:59.767Z,29.50
2023-03-02T19:22:33.488Z,33.38
2023-03-02T19:25:19.789Z,30.48
2023-03-02T19:27:52.928Z,32.20
2023-03-02T19:30:40.766Z,30.27
2023-03-02T19:33:14.872Z,29.88
2023-03-02T19:36:01.790Z,31.90
2023-03-02T19:38:38.031Z,29.23
2023-03-02T19:41:26.777Z,29.02
2023-03-02T19:44:06.792Z,31.33
2023-03-02T19:47:00.834Z,32.15
2023-03-02T19:49:47.775Z,31.73
2023-03-02T19:52:27.804Z,33.00
2023-03-02T19:55:22.781Z,49.67
2023-03-02T19:58:11.790Z,44.90
2023-03-02T20:00:45.032Z,41.08
2023-03-02T20:03:31.781Z,42.83
2023-03-02T20:06:11.772Z,38.92
2023-03-02T20:09:05.790Z,39.03
2023-03-02T20:11:53.813Z,37.45
2023-03-02T20:14:34.344Z,41.67
2023-03-02T20:17:20.814Z,38.35
2023-03-02T20:20:02.786Z,37.33
2023-03-02T20:22:51.798Z,35.60
2023-03-02T20:25:25.892Z,39.45
2023-03-02T20:28:13.798Z,35.30
2023-03-02T20:30:59.983Z,37.70
2023-03-02T20:33:46.804Z,36.78
2023-03-02T20:36:36.128Z,39.63
2023-03-02T20:39:34.946Z,43.70
2023-03-02T20:42:39.792Z,41.00
2023-03-02T20:45:26.804Z,39.67
2023-03-02T20:48:07.783Z,47.30
2023-03-02T20:51:03.827Z,48.88
2023-03-02T20:53:53.813Z,52.30
2023-03-02T20:56:27.982Z,49.38
2023-03-02T20:59:14.822Z,42.55
2023-03-02T21:01:54.819Z,42.17
2023-03-02T21:04:48.848Z,39.17
2023-03-02T21:07:42.811Z,33.50
2023-03-02T21:10:34.811Z,36.58
2023-03-02T21:13:15.812Z,33.97
2023-03-02T21:16:02.845Z,33.90
2023-03-02T21:18:35.946Z,33.05
2023-03-02T21:21:32.534Z,35.70
2023-03-02T21:24:19.824Z,37.63
2023-03-02T21:27:07.828Z,36.70
2023-03-02T21:29:40.908Z,37.92
2023-03-02T21:32:27.865Z,40.22
2023-03-02T21:35:02.519Z,38.13
2023-03-02T21:37:49.898Z,34.63
2023-03-02T21:40:34.800Z,37.15
2023-03-02T21:43:28.806Z,33.30
2023-03-02T21:46:19.951Z,31.95
2023-03-02T21:48:53.953Z,36.63
2023-03-02T21:51:43.822Z,34.15
2023-03-02T21:54:23.809Z,36.70
2023-03-02T21:57:10.852Z,35.05
2023-03-02T21:59:50.841Z,36.10
2023-03-02T22:02:38.985Z,36.50
2023-03-02T22:05:12.944Z,36.90
2023-03-02T22:07:59.885Z,36.38
2023-03-02T22:10:58.823Z,37.80
2023-03-02T22:13:52.846Z,40.20
2023-03-02T22:16:42.834Z,35.55
2023-03-02T22:19:41.810Z,37.60
2023-03-02T22:22:33.832Z,38.90
2023-03-02T22:25:06.922Z,33.33
2023-03-02T22:27:53.834Z,37.65
2023-03-02T22:30:38.831Z,36.88
2023-03-02T22:33:38.878Z,34.75
2023-03-02T22:36:29.830Z,33.13
2023-03-02T22:39:11.936Z,36.20
2023-03-02T22:42:05.850Z,32.45
2023-03-02T22:44:38.992Z,35.33
2023-03-02T22:47:26.847Z,35.75
2023-03-02T22:50:28.852Z,33.95
2023-03-02T22:53:35.882Z,35.50
2023-03-02T22:56:56.864Z,32.20
2023-03-02T22:59:50.844Z,33.00
2023-03-02T23:02:37.847Z,34.38
2023-03-02T23:05:29.003Z,34.65
2023-03-02T23:08:29.850Z,34.17
2023-03-02T23:11:11.847Z,33.05
2023-03-02T23:13:59.864Z,32.97
2023-03-02T23:16:41.909Z,33.53
2023-03-02T23:19:28.850Z,33.53
2023-03-02T23:22:09.850Z,32.35
2023-03-02T23:25:03.874Z,32.30
2023-03-02T23:27:50.856Z,31.38
2023-03-02T23:30:23.959Z,34.88
2023-03-02T23:33:10.850Z,42.05
2023-03-02T23:35:44.005Z,37.20
2023-03-02T23:38:30.867Z,37.67
2023-03-02T23:41:03.997Z,37.13
2023-03-02T23:43:50.852Z,35.60
2023-03-02T23:46:30.862Z,33.50
2023-03-02T23:49:17.850Z,35.63
2023-03-02T23:51:58.882Z,34.35
2023-03-02T23:54:45.856Z,34.25
2023-03-02T23:57:25.843Z,33.42
